PWSweather.com
Personal Weather Stations
Station Observations
WARREN
Narre Warren , MelbourneAU

Narre Warren MelbourneAU

Lat: -38.0314269, Lon: 145.3160851

Elevation: 24

Station Type: Digiteck

http://www.aussiedownunder.net/

High Low Average
Temperature 100.0°F37.8°C 76.8°F24.9°C 91.3°F32.9°C
Dew Point 58.4°F14.7°C 53.3°F11.8°C 55.6°F13.1°C
Winds 6.9 mph 11.1 kmh 0.4 mph 0.6 kmh 5.0 mph WNW8.0 kmh WNW
Wind Gusts 24.4 mph39.3 kmh 3.1 mph5.0 kmh 13.0 mph20.9 kmh
Humidity 53% 23% 30%
Pressure 29.96 in1014.6 mb 29.82 in1009.8 mb -
Precipitation 0.00 in0.0 mm - -
Hour Temp Dew Point Humidity Winds Wind Gusts Pressure Precip Precip Rate Daily Precip Total
12:00 AM 79.5°F26.4°C 54.5°F12.5°C 42% 1.0 mph WNW1.6 kmh WNW 6.9 mph11.1 kmh 29.90 in1012.5 mb 0.00 in0.0 mm 0.00 in0.0 mm 0.00 in0.0 mm
12:15 AM 84.0°F28.9°C 54.2°F12.3°C 36% 2.6 mph N4.2 kmh N 8.3 mph13.4 kmh 29.89 in1012.2 mb 0.00 in0.0 mm 0.00 in0.0 mm 0.00 in0.0 mm
12:30 AM 85.3°F29.6°C 53.8°F12.1°C 34% 3.0 mph NW4.8 kmh NW 10.7 mph17.2 kmh 29.89 in1012.2 mb 0.00 in0.0 mm 0.00 in0.0 mm 0.00 in0.0 mm
12:45 AM 86.0°F30.0°C 53.6°F12.0°C 33% 4.1 mph NW6.6 kmh NW 12.1 mph19.5 kmh 29.89 in1012.2 mb 0.00 in0.0 mm 0.00 in0.0 mm 0.00 in0.0 mm
01:00 AM 86.0°F30.0°C 53.6°F12.0°C 33% 3.2 mph NW5.1 kmh NW 8.3 mph13.4 kmh 29.89 in1012.2 mb 0.00 in0.0 mm 0.00 in0.0 mm 0.00 in0.0 mm
01:15 AM 86.0°F30.0°C 53.6°F12.0°C 33% 3.4 mph NW5.5 kmh NW 16.8 mph27.0 kmh 29.88 in1011.9 mb 0.00 in0.0 mm 0.00 in0.0 mm 0.00 in0.0 mm
01:30 AM 86.4°F30.2°C 53.9°F12.2°C 33% 5.6 mph WNW9.0 kmh WNW 15.2 mph24.5 kmh 29.88 in1011.9 mb 0.00 in0.0 mm 0.00 in0.0 mm 0.00 in0.0 mm
01:45 AM 86.2°F30.1°C 53.8°F12.1°C 33% 4.2 mph WNW6.8 kmh WNW 14.5 mph23.3 kmh 29.88 in1011.9 mb 0.00 in0.0 mm 0.00 in0.0 mm 0.00 in0.0 mm
02:00 AM 86.2°F30.1°C 53.8°F12.1°C 33% 4.8 mph NW7.7 kmh NW 13.0 mph20.9 kmh 29.88 in1011.9 mb 0.00 in0.0 mm 0.00 in0.0 mm 0.00 in0.0 mm
02:15 AM 86.2°F30.1°C 53.8°F12.1°C 33% 5.4 mph NW8.7 kmh NW 16.8 mph27.0 kmh 29.88 in1011.9 mb 0.00 in0.0 mm 0.00 in0.0 mm 0.00 in0.0 mm
02:30 AM 86.0°F30.0°C 53.6°F12.0°C 33% 5.7 mph NW9.2 kmh NW 15.9 mph25.6 kmh 29.88 in1011.9 mb 0.00 in0.0 mm 0.00 in0.0 mm 0.00 in0.0 mm
02:45 AM 85.8°F29.9°C 54.3°F12.4°C 34% 5.5 mph WNW8.9 kmh WNW 14.5 mph23.3 kmh 29.87 in1011.5 mb 0.00 in0.0 mm 0.00 in0.0 mm 0.00 in0.0 mm
03:00 AM 86.0°F30.0°C 53.6°F12.0°C 33% 5.8 mph NW9.3 kmh NW 15.9 mph25.6 kmh 29.88 in1011.9 mb 0.00 in0.0 mm 0.00 in0.0 mm 0.00 in0.0 mm
03:15 AM 85.5°F29.7°C 53.9°F12.2°C 34% 4.7 mph NW7.6 kmh NW 15.9 mph25.6 kmh 29.89 in1012.2 mb 0.00 in0.0 mm 0.00 in0.0 mm 0.00 in0.0 mm
03:30 AM 85.3°F29.6°C 53.8°F12.1°C 34% 5.5 mph NW8.9 kmh NW 14.5 mph23.3 kmh 29.89 in1012.2 mb 0.00 in0.0 mm 0.00 in0.0 mm 0.00 in0.0 mm
03:45 AM 85.3°F29.6°C 53.8°F12.1°C 34% 5.9 mph WNW9.5 kmh WNW 16.8 mph27.0 kmh 29.89 in1012.2 mb 0.00 in0.0 mm 0.00 in0.0 mm 0.00 in0.0 mm
04:00 AM 85.1°F29.5°C 53.6°F12.0°C 34% 5.6 mph NW9.0 kmh NW 15.9 mph25.6 kmh 29.90 in1012.5 mb 0.00 in0.0 mm 0.00 in0.0 mm 0.00 in0.0 mm
04:15 AM 84.7°F29.3°C 54.1°F12.3°C 35% 5.9 mph NW9.5 kmh NW 15.9 mph25.6 kmh 29.90 in1012.5 mb 0.00 in0.0 mm 0.00 in0.0 mm 0.00 in0.0 mm
04:30 AM 84.2°F29.0°C 53.6°F12.0°C 35% 4.8 mph NW7.7 kmh NW 14.5 mph23.3 kmh 29.91 in1012.9 mb 0.00 in0.0 mm 0.00 in0.0 mm 0.00 in0.0 mm
04:45 AM 84.2°F29.0°C 53.6°F12.0°C 35% 6.1 mph NNW9.8 kmh NNW 13.6 mph21.9 kmh 29.91 in1012.9 mb 0.00 in0.0 mm 0.00 in0.0 mm 0.00 in0.0 mm
05:00 AM 84.2°F29.0°C 53.6°F12.0°C 35% 4.3 mph WNW6.9 kmh WNW 15.9 mph25.6 kmh 29.92 in1013.2 mb 0.00 in0.0 mm 0.00 in0.0 mm 0.00 in0.0 mm
05:15 AM 84.0°F28.9°C 54.2°F12.3°C 36% 4.3 mph NW6.9 kmh NW 15.2 mph24.5 kmh 29.93 in1013.5 mb 0.00 in0.0 mm 0.00 in0.0 mm 0.00 in0.0 mm
05:30 AM 84.2°F29.0°C 53.6°F12.0°C 35% 4.5 mph NW7.2 kmh NW 15.9 mph25.6 kmh 29.93 in1013.5 mb 0.00 in0.0 mm 0.00 in0.0 mm 0.00 in0.0 mm
05:45 AM 84.7°F29.3°C 54.1°F12.3°C 35% 3.8 mph NW6.1 kmh NW 12.1 mph19.5 kmh 29.94 in1013.9 mb 0.00 in0.0 mm 0.00 in0.0 mm 0.00 in0.0 mm
06:00 AM 85.8°F29.9°C 55.1°F12.8°C 35% 3.6 mph NW5.8 kmh NW 10.7 mph17.2 kmh 29.94 in1013.9 mb 0.00 in0.0 mm 0.00 in0.0 mm 0.00 in0.0 mm
06:15 AM 87.1°F30.6°C 54.5°F12.5°C 33% 4.5 mph W7.2 kmh W 14.5 mph23.3 kmh 29.94 in1013.9 mb 0.00 in0.0 mm 0.00 in0.0 mm 0.00 in0.0 mm
06:30 AM 87.4°F30.8°C 54.9°F12.7°C 33% 5.2 mph NW8.4 kmh NW 14.5 mph23.3 kmh 29.94 in1013.9 mb 0.00 in0.0 mm 0.00 in0.0 mm 0.00 in0.0 mm
06:45 AM 86.9°F30.5°C 54.4°F12.4°C 33% 4.3 mph WNW6.9 kmh WNW 13.0 mph20.9 kmh 29.94 in1013.9 mb 0.00 in0.0 mm 0.00 in0.0 mm 0.00 in0.0 mm
07:00 AM 86.9°F30.5°C 54.4°F12.4°C 33% 5.4 mph NW8.7 kmh NW 16.8 mph27.0 kmh 29.95 in1014.2 mb 0.00 in0.0 mm 0.00 in0.0 mm 0.00 in0.0 mm
07:15 AM 88.9°F31.6°C 54.4°F12.4°C 31% 5.6 mph N9.0 kmh N 15.9 mph25.6 kmh 29.96 in1014.6 mb 0.00 in0.0 mm 0.00 in0.0 mm 0.00 in0.0 mm
07:30 AM 89.6°F32.0°C 54.1°F12.3°C 30% 6.0 mph W9.7 kmh W 14.5 mph23.3 kmh 29.96 in1014.6 mb 0.00 in0.0 mm 0.00 in0.0 mm 0.00 in0.0 mm
07:45 AM 89.1°F31.7°C 55.4°F13.0°C 32% 5.8 mph NNW9.3 kmh NNW 17.4 mph28.0 kmh 29.96 in1014.6 mb 0.00 in0.0 mm 0.00 in0.0 mm 0.00 in0.0 mm
08:00 AM 90.5°F32.5°C 54.9°F12.7°C 30% 5.5 mph NNW8.9 kmh NNW 15.2 mph24.5 kmh 29.96 in1014.6 mb 0.00 in0.0 mm 0.00 in0.0 mm 0.00 in0.0 mm
08:15 AM 91.0°F32.8°C 54.4°F12.4°C 29% 5.8 mph NW9.3 kmh NW 20.6 mph33.2 kmh 29.96 in1014.6 mb 0.00 in0.0 mm 0.00 in0.0 mm 0.00 in0.0 mm
08:30 AM 91.8°F33.2°C 56.9°F13.8°C 31% 5.4 mph WNW8.7 kmh WNW 16.8 mph27.0 kmh 29.95 in1014.2 mb 0.00 in0.0 mm 0.00 in0.0 mm 0.00 in0.0 mm
08:45 AM 93.0°F33.9°C 58.0°F14.4°C 31% 4.9 mph WNW7.9 kmh WNW 13.0 mph20.9 kmh 29.96 in1014.6 mb 0.00 in0.0 mm 0.00 in0.0 mm 0.00 in0.0 mm
09:00 AM 93.2°F34.0°C 58.1°F14.5°C 31% 5.2 mph NW8.4 kmh NW 20.6 mph33.2 kmh 29.95 in1014.2 mb 0.00 in0.0 mm 0.00 in0.0 mm 0.00 in0.0 mm
09:15 AM 93.2°F34.0°C 58.1°F14.5°C 31% 6.3 mph NNW10.1 kmh NNW 14.5 mph23.3 kmh 29.95 in1014.2 mb 0.00 in0.0 mm 0.00 in0.0 mm 0.00 in0.0 mm
09:30 AM 93.7°F34.3°C 57.7°F14.3°C 30% 6.3 mph WNW10.1 kmh WNW 15.2 mph24.5 kmh 29.95 in1014.2 mb 0.00 in0.0 mm 0.00 in0.0 mm 0.00 in0.0 mm
09:45 AM 94.3°F34.6°C 58.2°F14.6°C 30% 6.2 mph WNW10.0 kmh WNW 20.6 mph33.2 kmh 29.94 in1013.9 mb 0.00 in0.0 mm 0.00 in0.0 mm 0.00 in0.0 mm
10:00 AM 95.2°F35.1°C 57.0°F13.9°C 28% 5.9 mph NW9.5 kmh NW 17.4 mph28.0 kmh 29.94 in1013.9 mb 0.00 in0.0 mm 0.00 in0.0 mm 0.00 in0.0 mm
10:15 AM 95.7°F35.4°C 57.5°F14.2°C 28% 5.8 mph NW9.3 kmh NW 14.5 mph23.3 kmh 29.94 in1013.9 mb 0.00 in0.0 mm 0.00 in0.0 mm 0.00 in0.0 mm
10:30 AM 95.7°F35.4°C 57.5°F14.2°C 28% 6.8 mph W10.9 kmh W 24.4 mph39.3 kmh 29.93 in1013.5 mb 0.00 in0.0 mm 0.00 in0.0 mm 0.00 in0.0 mm
10:45 AM 96.8°F36.0°C 56.3°F13.5°C 26% 5.0 mph NW8.0 kmh NW 14.5 mph23.3 kmh 29.93 in1013.5 mb 0.00 in0.0 mm 0.00 in0.0 mm 0.00 in0.0 mm
11:00 AM 96.1°F35.6°C 57.8°F14.3°C 28% 6.9 mph NW11.1 kmh NW 20.6 mph33.2 kmh 29.92 in1013.2 mb 0.00 in0.0 mm 0.00 in0.0 mm 0.00 in0.0 mm
11:15 AM 98.4°F36.9°C 57.7°F14.3°C 26% 5.1 mph WNW8.2 kmh WNW 17.4 mph28.0 kmh 29.92 in1013.2 mb 0.00 in0.0 mm 0.00 in0.0 mm 0.00 in0.0 mm
11:30 AM 98.2°F36.8°C 56.5°F13.6°C 25% 5.7 mph NW9.2 kmh NW 19.7 mph31.7 kmh 29.92 in1013.2 mb 0.00 in0.0 mm 0.00 in0.0 mm 0.00 in0.0 mm
11:45 AM 98.4°F36.9°C 57.7°F14.3°C 26% 4.7 mph NW7.6 kmh NW 15.2 mph24.5 kmh 29.92 in1013.2 mb 0.00 in0.0 mm 0.00 in0.0 mm 0.00 in0.0 mm
12:00 PM 98.6°F37.0°C 56.8°F13.8°C 25% 6.2 mph W10.0 kmh W 13.6 mph21.9 kmh 29.92 in1013.2 mb 0.00 in0.0 mm 0.00 in0.0 mm 0.00 in0.0 mm
12:15 PM 99.1°F37.3°C 57.2°F14.0°C 25% 5.5 mph WNW8.9 kmh WNW 14.5 mph23.3 kmh 29.91 in1012.9 mb 0.00 in0.0 mm 0.00 in0.0 mm 0.00 in0.0 mm
12:30 PM 98.1°F36.7°C 57.4°F14.1°C 26% 6.3 mph NW10.1 kmh NW 15.2 mph24.5 kmh 29.90 in1012.5 mb 0.00 in0.0 mm 0.00 in0.0 mm 0.00 in0.0 mm
12:45 PM 99.7°F37.6°C 57.7°F14.3°C 25% 5.7 mph WSW9.2 kmh WSW 15.2 mph24.5 kmh 29.90 in1012.5 mb 0.00 in0.0 mm 0.00 in0.0 mm 0.00 in0.0 mm
01:00 PM 98.6°F37.0°C 56.8°F13.8°C 25% 5.7 mph NW9.2 kmh NW 15.2 mph24.5 kmh 29.89 in1012.2 mb 0.00 in0.0 mm 0.00 in0.0 mm 0.00 in0.0 mm
01:15 PM 98.2°F36.8°C 56.5°F13.6°C 25% 5.6 mph NW9.0 kmh NW 14.5 mph23.3 kmh 29.89 in1012.2 mb 0.00 in0.0 mm 0.00 in0.0 mm 0.00 in0.0 mm
01:30 PM 98.2°F36.8°C 56.5°F13.6°C 25% 5.9 mph WNW9.5 kmh WNW 17.4 mph28.0 kmh 29.88 in1011.9 mb 0.00 in0.0 mm 0.00 in0.0 mm 0.00 in0.0 mm
01:45 PM 98.8°F37.1°C 55.8°F13.2°C 24% 5.3 mph SW8.5 kmh SW 12.1 mph19.5 kmh 29.89 in1012.2 mb 0.00 in0.0 mm 0.00 in0.0 mm 0.00 in0.0 mm
02:00 PM 98.8°F37.1°C 56.9°F13.8°C 25% 5.2 mph NW8.4 kmh NW 16.8 mph27.0 kmh 29.88 in1011.9 mb 0.00 in0.0 mm 0.00 in0.0 mm 0.00 in0.0 mm
02:15 PM 98.6°F37.0°C 56.8°F13.8°C 25% 5.5 mph NNW8.9 kmh NNW 15.2 mph24.5 kmh 29.87 in1011.5 mb 0.00 in0.0 mm 0.00 in0.0 mm 0.00 in0.0 mm
02:30 PM 100.0°F37.8°C 58.0°F14.4°C 25% 4.8 mph NW7.7 kmh NW 14.5 mph23.3 kmh 29.87 in1011.5 mb 0.00 in0.0 mm 0.00 in0.0 mm 0.00 in0.0 mm
02:45 PM 99.9°F37.7°C 55.5°F13.1°C 23% 5.5 mph NW8.9 kmh NW 13.0 mph20.9 kmh 29.86 in1011.2 mb 0.00 in0.0 mm 0.00 in0.0 mm 0.00 in0.0 mm
03:00 PM 98.2°F36.8°C 57.5°F14.2°C 26% 4.9 mph WNW7.9 kmh WNW 11.4 mph18.3 kmh 29.85 in1010.8 mb 0.00 in0.0 mm 0.00 in0.0 mm 0.00 in0.0 mm
03:15 PM 100.0°F37.8°C 55.7°F13.2°C 23% 5.7 mph WNW9.2 kmh WNW 15.2 mph24.5 kmh 29.85 in1010.8 mb 0.00 in0.0 mm 0.00 in0.0 mm 0.00 in0.0 mm
03:30 PM 99.0°F37.2°C 55.9°F13.3°C 24% 4.9 mph WNW7.9 kmh WNW 14.5 mph23.3 kmh 29.84 in1010.5 mb 0.00 in0.0 mm 0.00 in0.0 mm 0.00 in0.0 mm
03:45 PM 99.0°F37.2°C 57.1°F13.9°C 25% 4.0 mph NW6.4 kmh NW 11.4 mph18.3 kmh 29.84 in1010.5 mb 0.00 in0.0 mm 0.00 in0.0 mm 0.00 in0.0 mm
04:00 PM 99.0°F37.2°C 55.9°F13.3°C 24% 5.3 mph NW8.5 kmh NW 13.6 mph21.9 kmh 29.84 in1010.5 mb 0.00 in0.0 mm 0.00 in0.0 mm 0.00 in0.0 mm
04:15 PM 99.9°F37.7°C 56.7°F13.7°C 24% 4.2 mph NW6.8 kmh NW 11.4 mph18.3 kmh 29.83 in1010.2 mb 0.00 in0.0 mm 0.00 in0.0 mm 0.00 in0.0 mm
04:30 PM 99.5°F37.5°C 55.2°F12.9°C 23% 4.3 mph NNW6.9 kmh NNW 11.4 mph18.3 kmh 29.83 in1010.2 mb 0.00 in0.0 mm 0.00 in0.0 mm 0.00 in0.0 mm
04:45 PM 98.6°F37.0°C 54.5°F12.5°C 23% 5.2 mph NW8.4 kmh NW 17.4 mph28.0 kmh 29.83 in1010.2 mb 0.00 in0.0 mm 0.00 in0.0 mm 0.00 in0.0 mm
05:00 PM 97.2°F36.2°C 53.3°F11.8°C 23% 3.8 mph NW6.1 kmh NW 12.1 mph19.5 kmh 29.82 in1009.8 mb 0.00 in0.0 mm 0.00 in0.0 mm 0.00 in0.0 mm
05:15 PM 96.8°F36.0°C 54.1°F12.3°C 24% 2.8 mph W4.5 kmh W 9.8 mph15.8 kmh 29.82 in1009.8 mb 0.00 in0.0 mm 0.00 in0.0 mm 0.00 in0.0 mm
05:30 PM 96.4°F35.8°C 56.0°F13.3°C 26% 3.6 mph NW5.8 kmh NW 11.4 mph18.3 kmh 29.83 in1010.2 mb 0.00 in0.0 mm 0.00 in0.0 mm 0.00 in0.0 mm
05:45 PM 96.3°F35.7°C 55.9°F13.3°C 26% 3.9 mph NW6.3 kmh NW 9.2 mph14.8 kmh 29.82 in1009.8 mb 0.00 in0.0 mm 0.00 in0.0 mm 0.00 in0.0 mm
06:00 PM 97.2°F36.2°C 55.5°F13.1°C 25% 3.3 mph NW5.3 kmh NW 9.2 mph14.8 kmh 29.82 in1009.8 mb 0.00 in0.0 mm 0.00 in0.0 mm 0.00 in0.0 mm
06:15 PM 95.5°F35.3°C 55.3°F12.9°C 26% 2.9 mph NW4.7 kmh NW 9.8 mph15.8 kmh 29.82 in1009.8 mb 0.00 in0.0 mm 0.00 in0.0 mm 0.00 in0.0 mm
06:30 PM 95.0°F35.0°C 54.8°F12.7°C 26% 3.9 mph NNW6.3 kmh NNW 9.2 mph14.8 kmh 29.83 in1010.2 mb 0.00 in0.0 mm 0.00 in0.0 mm 0.00 in0.0 mm
06:45 PM 94.5°F34.7°C 56.4°F13.6°C 28% 3.6 mph NNW5.8 kmh NNW 8.3 mph13.4 kmh 29.83 in1010.2 mb 0.00 in0.0 mm 0.00 in0.0 mm 0.00 in0.0 mm
07:00 PM 93.7°F34.3°C 55.8°F13.2°C 28% 4.1 mph NW6.6 kmh NW 13.0 mph20.9 kmh 29.84 in1010.5 mb 0.00 in0.0 mm 0.00 in0.0 mm 0.00 in0.0 mm
07:15 PM 92.5°F33.6°C 55.7°F13.2°C 29% 3.8 mph NW6.1 kmh NW 13.0 mph20.9 kmh 29.83 in1010.2 mb 0.00 in0.0 mm 0.00 in0.0 mm 0.00 in0.0 mm
07:30 PM 91.6°F33.1°C 55.8°F13.2°C 30% 4.0 mph NW6.4 kmh NW 15.2 mph24.5 kmh 29.83 in1010.2 mb 0.00 in0.0 mm 0.00 in0.0 mm 0.00 in0.0 mm
07:45 PM 90.9°F32.7°C 53.3°F11.8°C 28% 3.5 mph WNW5.6 kmh WNW 13.0 mph20.9 kmh 29.84 in1010.5 mb 0.00 in0.0 mm 0.00 in0.0 mm 0.00 in0.0 mm
08:00 PM 90.1°F32.3°C 54.6°F12.6°C 30% 4.1 mph NW6.6 kmh NW 11.4 mph18.3 kmh 29.84 in1010.5 mb 0.00 in0.0 mm 0.00 in0.0 mm 0.00 in0.0 mm
08:15 PM 90.1°F32.3°C 54.6°F12.6°C 30% 4.6 mph W7.4 kmh W 11.4 mph18.3 kmh 29.84 in1010.5 mb 0.00 in0.0 mm 0.00 in0.0 mm 0.00 in0.0 mm
08:30 PM 89.8°F32.1°C 54.3°F12.4°C 30% 3.3 mph NW5.3 kmh NW 9.8 mph15.8 kmh 29.84 in1010.5 mb 0.00 in0.0 mm 0.00 in0.0 mm 0.00 in0.0 mm
08:45 PM 89.8°F32.1°C 54.3°F12.4°C 30% 3.5 mph NW5.6 kmh NW 10.7 mph17.2 kmh 29.86 in1011.2 mb 0.00 in0.0 mm 0.00 in0.0 mm 0.00 in0.0 mm
09:00 PM 89.6°F32.0°C 55.0°F12.8°C 31% 2.7 mph SSE4.3 kmh SSE 7.6 mph12.2 kmh 29.88 in1011.9 mb 0.00 in0.0 mm 0.00 in0.0 mm 0.00 in0.0 mm
09:15 PM 88.0°F31.1°C 56.2°F13.4°C 34% 1.8 mph S2.9 kmh S 6.9 mph11.1 kmh 29.88 in1011.9 mb 0.00 in0.0 mm 0.00 in0.0 mm 0.00 in0.0 mm
09:30 PM 87.4°F30.8°C 55.7°F13.2°C 34% 2.3 mph SW3.7 kmh SW 11.4 mph18.3 kmh 29.90 in1012.5 mb 0.00 in0.0 mm 0.00 in0.0 mm 0.00 in0.0 mm
09:45 PM 87.1°F30.6°C 56.9°F13.8°C 36% 1.8 mph S2.9 kmh S 6.0 mph9.7 kmh 29.89 in1012.2 mb 0.00 in0.0 mm 0.00 in0.0 mm 0.00 in0.0 mm
10:00 PM 86.9°F30.5°C 57.5°F14.2°C 37% 4.6 mph SSW7.4 kmh SSW 10.7 mph17.2 kmh 29.92 in1013.2 mb 0.00 in0.0 mm 0.00 in0.0 mm 0.00 in0.0 mm
10:15 PM 86.4°F30.2°C 56.3°F13.5°C 36% 2.3 mph SW3.7 kmh SW 6.9 mph11.1 kmh 29.91 in1012.9 mb 0.00 in0.0 mm 0.00 in0.0 mm 0.00 in0.0 mm
10:30 PM 87.4°F30.8°C 56.5°F13.6°C 35% 1.9 mph NW3.1 kmh NW 6.9 mph11.1 kmh 29.90 in1012.5 mb 0.00 in0.0 mm 0.00 in0.0 mm 0.00 in0.0 mm
10:45 PM 86.7°F30.4°C 56.6°F13.7°C 36% 0.5 mph NW0.8 kmh NW 3.8 mph6.1 kmh 29.89 in1012.2 mb 0.00 in0.0 mm 0.00 in0.0 mm 0.00 in0.0 mm
11:00 PM 85.6°F29.8°C 57.2°F14.0°C 38% 0.4 mph SE0.6 kmh SE 3.1 mph5.0 kmh 29.90 in1012.5 mb 0.00 in0.0 mm 0.00 in0.0 mm 0.00 in0.0 mm
11:15 PM 84.4°F29.1°C 57.5°F14.2°C 40% 1.9 mph SSW3.1 kmh SSW 6.0 mph9.7 kmh 29.91 in1012.9 mb 0.00 in0.0 mm 0.00 in0.0 mm 0.00 in0.0 mm
11:30 PM 80.4°F26.9°C 57.2°F14.0°C 45% 4.5 mph SSW7.2 kmh SSW 10.7 mph17.2 kmh 29.95 in1014.2 mb 0.00 in0.0 mm 0.00 in0.0 mm 0.00 in0.0 mm
11:45 PM 76.8°F24.9°C 58.4°F14.7°C 53% 1.7 mph SW2.7 kmh SW 5.4 mph8.7 kmh 29.94 in1013.9 mb 0.00 in0.0 mm 0.00 in0.0 mm 0.00 in0.0 mm